Time;durP1;ratioP1;P1;durP2;ratioP2;P2;SDS_P1;SDS_P2;PMS_P1;PMS_P2;Temp;Humidity;BMP_temperature;BMP_pressure;BME280_temperature;BME280_humidity;BME280_pressure;Samples;Min_cycle;Max_cycle;Signal;HPM_P1;HPM_P2
2021/11/20 00:01:42;;;;;;;87.07;23.17;;;;;;;0.97;100.00;97999.16;5001701;28;20515;-63
2021/11/20 00:04:08;;;;;;;85.00;24.27;;;;;;;1.04;100.00;97994.28;4992380;28;20087;-63
2021/11/20 00:06:37;;;;;;;81.55;23.45;;;;;;;1.07;100.00;98001.03;4998775;28;20130;-63
2021/11/20 00:09:06;;;;;;;95.10;22.70;;;;;;;1.03;100.00;98002.69;4995488;28;20050;-65
2021/11/20 00:11:35;;;;;;;86.90;22.67;;;;;;;1.04;100.00;97999.69;4998568;28;20808;-61
2021/11/20 00:14:01;;;;;;;95.03;23.90;;;;;;;1.01;100.00;97984.06;5001949;28;20495;-62
2021/11/20 00:16:26;;;;;;;99.13;25.88;;;;;;;0.95;100.00;97988.66;4996807;28;20049;-61
2021/11/20 00:18:53;;;;;;;91.88;25.20;;;;;;;0.96;100.00;97992.16;5001952;28;20522;-62
2021/11/20 00:21:24;;;;;;;115.35;26.17;;;;;;;0.92;100.00;97993.78;4996270;28;20045;-64
2021/11/20 00:23:54;;;;;;;104.38;24.92;;;;;;;0.88;100.00;97988.13;5003161;28;20050;-64
2021/11/20 00:26:22;;;;;;;111.07;26.50;;;;;;;0.87;100.00;97986.50;4993901;28;20045;-64
2021/11/20 00:31:30;;;;;;;94.13;24.23;;;;;;;0.63;100.00;97980.88;4994581;28;20850;-64
2021/11/20 00:33:56;;;;;;;99.20;25.35;;;;;;;0.55;100.00;97978.69;5001958;28;20065;-64
2021/11/20 00:36:22;;;;;;;98.97;25.60;;;;;;;0.50;100.00;97984.88;4998086;28;20606;-64
2021/11/20 00:38:48;;;;;;;73.68;21.95;;;;;;;0.54;100.00;97990.56;5001112;28;20453;-65
2021/11/20 00:41:22;;;;;;;88.43;23.08;;;;;;;0.65;100.00;97988.66;5003873;28;20047;-65
2021/11/20 00:43:50;;;;;;;79.00;22.70;;;;;;;0.86;100.00;97981.38;5003653;28;20046;-63
2021/11/20 00:46:17;;;;;;;71.85;19.50;;;;;;;1.07;100.00;97971.38;4997105;28;20045;-63
2021/11/20 00:48:46;;;;;;;73.32;20.33;;;;;;;1.02;100.00;97979.47;4994728;28;20171;-64
2021/11/20 00:51:13;;;;;;;67.50;21.45;;;;;;;0.70;100.00;97977.88;4992994;28;20391;-64
2021/11/20 00:53:40;;;;;;;65.80;19.13;;;;;;;0.55;100.00;97976.81;5002570;28;20486;-64
2021/11/20 00:56:08;;;;;;;71.22;21.33;;;;;;;0.70;100.00;97976.00;4997392;28;20136;-64
2021/11/20 00:58:34;;;;;;;60.00;18.63;;;;;;;0.70;100.00;97977.88;5002680;28;20046;-63
2021/11/20 01:01:01;;;;;;;58.22;18.85;;;;;;;0.74;100.00;97977.06;4999901;28;20053;-64
2021/11/20 01:03:28;;;;;;;60.92;19.40;;;;;;;0.79;100.00;97970.84;4995614;28;20046;-63
2021/11/20 01:05:55;;;;;;;59.20;20.35;;;;;;;0.83;100.00;97973.81;5000022;28;20049;-63
2021/11/20 01:08:23;;;;;;;63.08;21.00;;;;;;;0.95;100.00;97979.72;4996337;28;20145;-63
2021/11/20 01:10:54;;;;;;;53.08;18.90;;;;;;;0.92;100.00;97972.22;5000113;28;20100;-64
2021/11/20 01:13:20;;;;;;;54.25;18.05;;;;;;;0.83;100.00;97977.34;4997006;28;20046;-65
2021/11/20 01:15:50;;;;;;;62.75;20.75;;;;;;;0.85;100.00;97968.97;5000799;28;20057;-64
2021/11/20 01:18:18;;;;;;;60.35;20.98;;;;;;;0.99;100.00;97958.41;4991945;28;20046;-64
2021/11/20 01:20:46;;;;;;;68.30;21.30;;;;;;;0.93;100.00;97960.31;5000710;28;20034;-64
2021/11/20 01:23:13;;;;;;;59.42;19.08;;;;;;;0.88;100.00;97965.72;4994873;28;20049;-62
2021/11/20 01:25:39;;;;;;;59.53;20.80;;;;;;;0.87;100.00;97964.13;5000128;28;20042;-65
2021/11/20 01:28:06;;;;;;;65.68;21.40;;;;;;;0.78;100.00;97958.47;4995527;28;20557;-63
2021/11/20 01:30:32;;;;;;;58.67;20.13;;;;;;;0.99;100.00;97967.34;5000562;28;20118;-65
2021/11/20 01:32:58;;;;;;;56.10;19.45;;;;;;;0.89;100.00;97965.44;4983928;28;20054;-65
2021/11/20 01:35:24;;;;;;;53.08;18.60;;;;;;;1.01;100.00;97957.06;4993772;28;20838;-64
2021/11/20 01:37:50;;;;;;;56.78;20.25;;;;;;;0.81;100.00;97951.69;5000496;28;20042;-64
2021/11/20 01:40:20;;;;;;;51.85;19.77;;;;;;;0.92;100.00;97959.53;4995395;28;20145;-63
2021/11/20 01:42:46;;;;;;;53.65;20.02;;;;;;;0.80;100.00;97956.31;4997324;28;20623;-63
2021/11/20 01:45:23;;;;;;;64.53;20.98;;;;;;;0.90;100.00;97961.69;4989017;28;20780;-61
2021/11/20 01:47:56;;;;;;;51.65;18.52;;;;;;;0.87;100.00;97958.72;5000330;28;20042;-64
2021/11/20 01:50:33;;;;;;;51.63;19.02;;;;;;;0.90;100.00;97956.28;4994055;28;20128;-63
2021/11/20 01:53:15;;;;;;;49.58;18.58;;;;;;;0.92;100.00;97947.94;4994506;28;20566;-64
2021/11/20 01:55:49;;;;;;;50.35;18.80;;;;;;;1.02;100.00;97944.38;4995221;28;20049;-63
2021/11/20 01:58:19;;;;;;;52.25;19.13;;;;;;;1.14;100.00;97932.22;4990765;28;20038;-63
2021/11/20 02:00:53;;;;;;;59.65;19.15;;;;;;;1.11;100.00;97940.03;4997350;28;20054;-61
2021/11/20 02:03:38;;;;;;;52.28;19.02;;;;;;;1.05;100.00;97935.75;4995795;28;20101;-63
2021/11/20 02:06:32;;;;;;;54.33;19.88;;;;;;;1.12;100.00;97928.97;4999943;28;20395;-61
2021/11/20 02:09:13;;;;;;;47.78;18.75;;;;;;;0.97;100.00;97928.22;5002088;28;20045;-63
2021/11/20 02:11:44;;;;;;;50.35;19.48;;;;;;;0.91;100.00;97920.13;5000861;28;20046;-62
2021/11/20 02:14:12;;;;;;;53.85;19.25;;;;;;;1.00;100.00;97928.47;4992447;28;20057;-62
2021/11/20 02:16:44;;;;;;;49.83;19.30;;;;;;;0.95;100.00;97925.78;4997552;28;20042;-62
2021/11/20 02:19:15;;;;;;;47.45;19.63;;;;;;;0.92;100.00;97931.75;4989871;28;20048;-62
2021/11/20 02:21:46;;;;;;;48.83;19.88;;;;;;;1.06;100.00;97922.00;4998440;28;20045;-62
2021/11/20 02:24:12;;;;;;;46.75;19.17;;;;;;;1.19;100.00;97926.00;4995157;28;20038;-63
2021/11/20 02:26:37;;;;;;;42.30;18.83;;;;;;;1.33;100.00;97923.50;4997306;28;20092;-62
2021/11/20 02:29:07;;;;;;;48.77;19.67;;;;;;;1.20;100.00;97919.50;4995703;28;20292;-61
2021/11/20 02:31:44;;;;;;;47.20;19.70;;;;;;;1.19;100.00;97927.88;5000491;28;20328;-62
2021/11/20 02:34:11;;;;;;;42.28;19.33;;;;;;;1.21;100.00;97917.63;4993921;28;20041;-63
2021/11/20 02:36:37;;;;;;;44.42;18.52;;;;;;;1.12;100.00;97922.78;4993820;28;20398;-62
2021/11/20 02:39:13;;;;;;;43.17;17.55;;;;;;;1.23;100.00;97921.66;4998350;28;20475;-61
2021/11/20 02:41:39;;;;;;;42.10;18.25;;;;;;;1.02;100.00;97909.31;5000419;28;20112;-61
2021/11/20 02:44:06;;;;;;;36.33;17.00;;;;;;;1.27;100.00;97909.22;4995468;28;20511;-61
2021/11/20 02:46:36;;;;;;;35.05;16.45;;;;;;;1.51;100.00;97909.38;4998893;28;20502;-63
2021/11/20 02:49:01;;;;;;;37.42;17.38;;;;;;;1.26;100.00;97907.63;4997480;28;20042;-63
2021/11/20 02:51:31;;;;;;;35.05;16.48;;;;;;;1.08;100.00;97900.94;4991896;28;20516;-64
2021/11/20 02:53:58;;;;;;;35.72;16.40;;;;;;;1.00;100.00;97908.78;4999476;28;20046;-62
2021/11/20 02:56:28;;;;;;;34.38;16.85;;;;;;;0.97;100.00;97904.72;4993925;28;20053;-63
2021/11/20 02:58:54;;;;;;;34.13;16.17;;;;;;;1.26;100.00;97902.22;5000656;28;20372;-62
2021/11/20 03:01:27;;;;;;;33.20;14.82;;;;;;;1.11;100.00;97894.97;4993148;28;20057;-63
2021/11/20 03:03:53;;;;;;;34.28;16.60;;;;;;;1.40;100.00;97893.50;4998036;28;20398;-63
2021/11/20 03:06:19;;;;;;;32.47;15.63;;;;;;;1.62;100.00;97885.00;4990576;28;20568;-63
2021/11/20 03:08:45;;;;;;;32.20;15.07;;;;;;;1.47;100.00;97880.50;4999364;28;20073;-62
2021/11/20 03:11:14;;;;;;;28.00;13.93;;;;;;;1.53;100.00;97880.22;4994083;28;20478;-62
2021/11/20 03:13:41;;;;;;;29.48;15.25;;;;;;;1.45;100.00;97871.88;4996137;28;20079;-63
2021/11/20 03:16:07;;;;;;;30.60;14.88;;;;;;;1.10;100.00;97862.88;4993247;28;20038;-62
2021/11/20 03:18:33;;;;;;;28.50;13.88;;;;;;;1.26;100.00;97855.50;4998906;28;20369;-64
2021/11/20 03:20:58;;;;;;;29.00;14.75;;;;;;;1.43;100.00;97853.25;4994844;28;20414;-63
2021/11/20 03:23:28;;;;;;;26.20;13.82;;;;;;;1.38;100.00;97850.59;4992099;28;20077;-62
2021/11/20 03:25:54;;;;;;;;;;;;;;;1.33;100.00;97839.81;4998373;28;20055;-63
2021/11/20 03:28:19;;;;;;;27.15;13.20;;;;;;;1.04;100.00;97837.00;4988304;28;19930;-63
2021/11/20 03:30:46;;;;;;;29.98;14.20;;;;;;;1.04;100.00;97842.38;4998058;28;20042;-65
2021/11/20 03:33:13;;;;;;;31.05;14.25;;;;;;;1.01;100.00;97837.53;4992398;28;20041;-65
2021/11/20 03:35:39;;;;;;;29.83;14.07;;;;;;;1.22;100.00;97835.56;5001653;28;20045;-64
2021/11/20 03:38:05;;;;;;;27.75;14.80;;;;;;;1.16;100.00;97829.38;4997637;28;20045;-63
2021/11/20 03:40:31;;;;;;;31.83;14.77;;;;;;;1.11;100.00;97838.31;4998704;28;20038;-63
2021/11/20 03:42:57;;;;;;;32.95;15.40;;;;;;;0.92;100.00;97838.13;4997878;28;20053;-63
2021/11/20 03:45:25;;;;;;;32.05;13.48;;;;;;;1.16;100.00;97832.09;4995722;28;20408;-64
2021/11/20 03:47:51;;;;;;;29.85;15.30;;;;;;;1.41;100.00;97827.66;4999690;28;20135;-64
2021/11/20 03:50:17;;;;;;;29.42;15.55;;;;;;;1.46;100.00;97831.13;4995273;28;20555;-62
2021/11/20 03:52:43;;;;;;;24.70;14.27;;;;;;;1.62;100.00;97825.59;5002704;28;20048;-65
2021/11/20 03:55:16;;;;;;;27.80;13.93;;;;;;;1.61;100.00;97822.09;4993493;28;20088;-61
2021/11/20 03:57:42;;;;;;;27.73;14.52;;;;;;;1.78;100.00;97823.59;5002444;28;20074;-64
2021/11/20 04:00:12;;;;;;;23.55;13.05;;;;;;;1.85;100.00;97814.09;4994073;28;20399;-64
2021/11/20 04:02:37;;;;;;;25.63;13.27;;;;;;;1.58;100.00;97819.16;4990868;28;20052;-66
2021/11/20 04:05:05;;;;;;;24.45;13.02;;;;;;;1.75;100.00;97816.06;4999665;28;20042;-60
2021/11/20 04:07:31;;;;;;;23.73;12.63;;;;;;;1.79;100.00;97814.41;4998748;28;20042;-64
2021/11/20 04:09:56;;;;;;;22.25;11.55;;;;;;;1.81;100.00;97815.75;4996477;28;20045;-62
2021/11/20 04:12:22;;;;;;;23.92;12.60;;;;;;;1.97;100.00;97805.63;5004516;28;20203;-62
2021/11/20 04:14:48;;;;;;;25.63;11.48;;;;;;;1.88;100.00;97810.03;5002468;28;20125;-62
2021/11/20 04:17:13;;;;;;;21.05;10.88;;;;;;;1.86;100.00;97807.59;4996887;28;20124;-63
2021/11/20 04:19:39;;;;;;;20.65;12.23;;;;;;;2.00;100.00;97799.66;5002621;28;20062;-64
2021/11/20 04:22:05;;;;;;;23.02;12.55;;;;;;;1.99;100.00;97799.94;4989732;28;20089;-61
2021/11/20 04:24:30;;;;;;;20.25;12.30;;;;;;;1.91;100.00;97802.16;5002692;28;20038;-63
2021/11/20 04:26:56;;;;;;;20.45;11.60;;;;;;;1.78;100.00;97793.88;5002684;28;20541;-63
2021/11/20 04:29:22;;;;;;;20.30;10.48;;;;;;;1.73;100.00;97802.84;4993831;28;20697;-63
2021/11/20 04:31:48;;;;;;;19.00;11.15;;;;;;;1.18;100.00;97800.22;4996532;28;20162;-63
2021/11/20 04:34:15;;;;;;;16.98;10.20;;;;;;;0.92;100.00;97802.25;4994296;28;20054;-62
2021/11/20 04:36:40;;;;;;;19.40;11.23;;;;;;;0.91;100.00;97800.63;4996654;28;20522;-63
2021/11/20 04:39:06;;;;;;;20.80;11.43;;;;;;;0.91;100.00;97804.13;4990592;28;20046;-61
2021/11/20 04:41:31;;;;;;;23.90;12.85;;;;;;;0.83;100.00;97793.94;5000669;28;20525;-63
2021/11/20 04:43:57;;;;;;;23.33;11.80;;;;;;;1.17;100.00;97798.63;4993514;28;20479;-62
2021/11/20 04:46:24;;;;;;;28.73;13.68;;;;;;;1.45;100.00;97801.69;4994402;28;20933;-64
2021/11/20 04:48:50;;;;;;;32.47;14.68;;;;;;;1.68;100.00;97800.19;5000571;28;20042;-62
2021/11/20 04:51:16;;;;;;;30.20;13.18;;;;;;;1.66;100.00;97797.75;4995885;28;20113;-64
2021/11/20 04:53:43;;;;;;;28.50;13.68;;;;;;;1.74;100.00;97795.56;5000867;28;20460;-64
2021/11/20 04:56:11;;;;;;;28.77;13.40;;;;;;;1.62;100.00;97795.91;4994825;28;20046;-62
2021/11/20 04:58:37;;;;;;;31.60;12.88;;;;;;;1.76;100.00;97799.56;5002009;28;20046;-64
2021/11/20 05:01:04;;;;;;;27.67;13.80;;;;;;;1.90;100.00;97795.13;4996785;28;20069;-61
2021/11/20 05:03:29;;;;;;;26.20;13.90;;;;;;;1.91;100.00;97799.47;4997568;28;20057;-64
2021/11/20 05:05:56;;;;;;;31.33;13.05;;;;;;;1.96;100.00;97800.50;4995673;28;20038;-64
2021/11/20 05:08:23;;;;;;;28.05;12.25;;;;;;;1.93;100.00;97788.38;4993608;28;20719;-63
2021/11/20 05:10:51;;;;;;;31.88;13.30;;;;;;;1.96;100.00;97792.38;4999376;28;20046;-64
2021/11/20 05:13:18;;;;;;;27.92;12.15;;;;;;;1.97;100.00;97789.41;4990734;28;20046;-63
2021/11/20 05:15:45;;;;;;;31.88;12.43;;;;;;;2.05;100.00;97791.50;5001027;28;20487;-63
2021/11/20 05:18:11;;;;;;;26.13;12.52;;;;;;;1.84;100.00;97790.88;4994773;28;20514;-63
2021/11/20 05:20:37;;;;;;;26.33;11.57;;;;;;;1.87;100.00;97792.19;5000437;28;20037;-63
2021/11/20 05:23:03;;;;;;;38.63;13.35;;;;;;;1.40;100.00;97782.81;4999591;28;20034;-62
2021/11/20 05:25:29;;;;;;;45.72;13.77;;;;;;;1.12;100.00;97782.47;4999869;28;20149;-63
2021/11/20 05:27:55;;;;;;;38.00;13.45;;;;;;;1.11;100.00;97780.84;4995812;28;20053;-63
2021/11/20 05:30:36;;;;;;;42.45;13.77;;;;;;;1.02;100.00;97782.50;4996351;28;20186;-64
2021/11/20 05:33:07;;;;;;;36.30;13.68;;;;;;;1.04;100.00;97780.34;4994698;28;20054;-63
2021/11/20 05:35:34;;;;;;;55.92;16.30;;;;;;;1.01;100.00;97770.09;4999785;28;20046;-62
2021/11/20 05:38:00;;;;;;;50.75;15.82;;;;;;;0.99;100.00;97778.50;4999225;28;20399;-63
2021/11/20 05:40:26;;;;;;;46.55;16.15;;;;;;;0.89;100.00;97768.53;4995311;28;20035;-62
2021/11/20 05:42:55;;;;;;;38.85;15.93;;;;;;;0.76;100.00;97772.66;4996209;28;20546;-65
2021/11/20 05:45:25;;;;;;;39.58;15.77;;;;;;;0.74;100.00;97769.44;4995938;28;20525;-63
2021/11/20 05:47:50;;;;;;;52.17;17.00;;;;;;;0.68;100.00;97767.81;4998961;28;20068;-62
2021/11/20 05:50:19;;;;;;;42.88;17.98;;;;;;;0.59;100.00;97771.38;4993141;28;20474;-62
2021/11/20 05:52:47;;;;;;;43.10;18.52;;;;;;;0.53;100.00;97771.38;5000182;28;20124;-62
2021/11/20 05:55:15;;;;;;;43.42;17.45;;;;;;;0.43;100.00;97763.31;4993678;28;20061;-63
2021/11/20 05:57:40;;;;;;;44.88;18.83;;;;;;;0.30;100.00;97770.09;4994840;28;20054;-64
2021/11/20 06:00:15;;;;;;;42.28;17.55;;;;;;;0.32;100.00;97767.94;4995281;28;20096;-63
2021/11/20 06:02:41;;;;;;;40.38;17.17;;;;;;;0.19;100.00;97763.13;4991955;28;20056;-63
2021/11/20 06:05:07;;;;;;;46.22;17.80;;;;;;;0.16;100.00;97756.41;4994976;28;20037;-63
2021/11/20 06:07:33;;;;;;;48.38;18.85;;;;;;;0.18;100.00;97766.88;5000512;28;20372;-63
2021/11/20 06:09:59;;;;;;;43.13;19.00;;;;;;;0.16;100.00;97763.66;4998469;28;20056;-64
2021/11/20 06:12:25;;;;;;;44.42;18.60;;;;;;;0.14;100.00;97757.75;4993295;28;20988;-64
2021/11/20 06:14:51;;;;;;;45.55;19.15;;;;;;;0.17;100.00;97754.50;4998050;28;20049;-64
2021/11/20 06:17:17;;;;;;;50.10;18.45;;;;;;;0.31;100.00;97760.16;4993973;28;20128;-64
2021/11/20 06:19:42;;;;;;;49.10;19.20;;;;;;;0.36;100.00;97757.41;5000714;28;20134;-64
2021/11/20 06:22:08;;;;;;;53.60;22.75;;;;;;;0.33;100.00;97758.78;4991667;28;20582;-64
2021/11/20 06:24:34;;;;;;;46.78;18.98;;;;;;;0.33;100.00;97763.38;4999742;28;20049;-63
2021/11/20 06:26:59;;;;;;;50.70;20.65;;;;;;;0.23;100.00;97763.38;5000506;28;20034;-64
2021/11/20 06:29:25;;;;;;;58.35;22.70;;;;;;;0.24;100.00;97756.94;4987694;28;20180;-64
2021/11/20 06:31:50;;;;;;;55.30;20.95;;;;;;;0.26;100.00;97754.78;4998702;28;20042;-63
2021/11/20 06:34:16;;;;;;;49.20;20.25;;;;;;;0.21;100.00;97755.56;4992147;28;20045;-62
2021/11/20 06:36:42;;;;;;;54.40;22.20;;;;;;;0.30;100.00;97755.81;4999868;28;20042;-64
2021/11/20 06:39:07;;;;;;;57.13;21.92;;;;;;;0.32;100.00;97756.34;4993697;28;20052;-64
2021/11/20 06:41:33;;;;;;;55.20;21.60;;;;;;;0.31;100.00;97763.66;4981350;28;20034;-63
2021/11/20 06:43:58;;;;;;;82.20;30.27;;;;;;;0.41;100.00;97760.09;4995474;28;20042;-63
2021/11/20 06:46:24;;;;;;;52.53;23.52;;;;;;;0.37;100.00;97759.84;4990662;28;20723;-62
2021/11/20 06:48:49;;;;;;;64.97;29.50;;;;;;;0.25;100.00;97764.72;4999351;28;20042;-63
2021/11/20 06:51:18;;;;;;;52.33;22.77;;;;;;;0.40;100.00;97763.91;4986112;28;20034;-62
2021/11/20 06:53:45;;;;;;;46.08;18.35;;;;;;;0.48;100.00;97760.63;4997841;28;20537;-63
2021/11/20 06:56:15;;;;;;;51.50;18.67;;;;;;;0.67;100.00;97755.44;4993353;28;20049;-63
2021/11/20 06:58:54;;;;;;;46.40;19.92;;;;;;;0.38;100.00;97763.38;4999604;28;20033;-63
2021/11/20 07:01:22;;;;;;;52.15;19.95;;;;;;;0.32;100.00;97757.16;4992235;28;20056;-62
2021/11/20 07:03:58;;;;;;;42.80;18.80;;;;;;;0.55;100.00;97757.63;4998011;28;20038;-63
2021/11/20 07:06:30;;;;;;;43.95;18.08;;;;;;;0.57;100.00;97756.25;4995078;28;20129;-63
2021/11/20 07:08:57;;;;;;;45.33;17.75;;;;;;;0.41;100.00;97757.41;5001480;28;20077;-64
2021/11/20 07:11:25;;;;;;;45.83;17.00;;;;;;;0.37;100.00;97761.75;4996942;28;20284;-63
2021/11/20 07:13:51;;;;;;;46.80;17.35;;;;;;;0.49;100.00;97753.34;5003182;28;20594;-64
2021/11/20 07:16:22;;;;;;;37.65;17.20;;;;;;;0.33;100.00;97752.59;4996355;28;20133;-63
2021/11/20 07:18:47;;;;;;;49.75;19.52;;;;;;;0.36;100.00;97760.09;5003654;28;20064;-63
2021/11/20 07:21:13;;;;;;;43.70;18.75;;;;;;;0.25;100.00;97764.72;4992936;28;20042;-62
2021/11/20 07:23:39;;;;;;;44.92;18.70;;;;;;;0.29;100.00;97760.41;4997465;28;20045;-63
2021/11/20 07:26:06;;;;;;;48.00;19.00;;;;;;;0.35;100.00;97759.31;4997915;28;20410;-64
2021/11/20 07:28:32;;;;;;;58.05;23.88;;;;;;;0.44;100.00;97756.88;5002802;28;20104;-64
2021/11/20 07:30:58;;;;;;;59.10;24.67;;;;;;;0.56;100.00;97759.25;5001944;28;20038;-64
2021/11/20 07:33:24;;;;;;;51.88;19.25;;;;;;;0.38;100.00;97756.06;4996233;28;20134;-64
2021/11/20 07:35:53;;;;;;;46.60;18.90;;;;;;;0.46;100.00;97759.28;5003101;28;20037;-64
2021/11/20 07:38:22;;;;;;;53.78;18.70;;;;;;;0.51;100.00;97756.59;4996564;28;20048;-63
2021/11/20 07:40:48;;;;;;;54.50;22.52;;;;;;;0.51;100.00;97764.66;4998962;28;20507;-63
2021/11/20 07:43:14;;;;;;;67.15;32.55;;;;;;;0.45;100.00;97755.78;4997445;28;20045;-63
2021/11/20 07:45:40;;;;;;;51.67;21.63;;;;;;;0.52;100.00;97755.47;5001681;28;20049;-64
2021/11/20 07:48:16;;;;;;;53.40;20.02;;;;;;;0.62;100.00;97747.34;4997691;28;20033;-62
2021/11/20 07:50:44;;;;;;;53.30;21.98;;;;;;;0.70;100.00;97751.38;5000491;28;20400;-62
2021/11/20 07:53:11;;;;;;;73.45;28.65;;;;;;;0.69;100.00;97747.06;4997740;28;20042;-64
2021/11/20 07:55:37;;;;;;;51.70;18.85;;;;;;;0.70;100.00;97743.28;4999706;28;20045;-64
2021/11/20 07:58:04;;;;;;;47.75;18.25;;;;;;;0.93;100.00;97739.91;5000121;28;20042;-63
2021/11/20 08:00:30;;;;;;;50.78;20.40;;;;;;;1.26;100.00;97734.88;4998335;28;20192;-64
2021/11/20 08:02:56;;;;;;;46.05;18.25;;;;;;;1.49;100.00;97736.03;5002847;28;20152;-64
2021/11/20 08:05:26;;;;;;;50.05;18.65;;;;;;;1.69;100.00;97731.56;4997472;28;20526;-64
2021/11/20 08:07:53;;;;;;;46.28;18.63;;;;;;;1.86;100.00;97740.06;5000985;28;20033;-63
2021/11/20 08:10:20;;;;;;;42.33;18.75;;;;;;;1.96;100.00;97733.75;4994853;28;20612;-63
2021/11/20 08:12:45;;;;;;;35.58;15.65;;;;;;;2.01;100.00;97730.19;5001641;28;20041;-64
2021/11/20 08:15:11;;;;;;;44.80;20.92;;;;;;;2.09;100.00;97733.09;4994911;28;20052;-64
2021/11/20 08:17:37;;;;;;;42.25;15.32;;;;;;;2.00;100.00;97725.88;5002114;28;20414;-63
2021/11/20 08:20:06;;;;;;;31.17;13.73;;;;;;;2.01;100.00;97717.47;4998094;28;20129;-63
2021/11/20 08:22:31;;;;;;;34.42;14.77;;;;;;;2.07;100.00;97727.16;4999156;28;20527;-64
2021/11/20 08:24:56;;;;;;;34.63;14.10;;;;;;;2.06;100.00;97725.53;5002149;28;20052;-63
2021/11/20 08:27:22;;;;;;;38.45;13.88;;;;;;;1.80;100.00;97721.47;4995132;28;20495;-64
2021/11/20 08:29:47;;;;;;;34.15;14.80;;;;;;;1.92;100.00;97721.91;4994317;28;20065;-63
2021/11/20 08:32:13;;;;;;;43.00;15.02;;;;;;;1.75;100.00;97710.72;4992352;28;20046;-63
2021/11/20 08:34:42;;;;;;;35.80;13.80;;;;;;;1.76;100.00;97706.94;5000504;28;20049;-64
2021/11/20 08:37:09;;;;;;;38.70;14.90;;;;;;;1.46;100.00;97703.41;4995785;28;20037;-63
2021/11/20 08:39:35;;;;;;;38.80;13.88;;;;;;;1.28;100.00;97710.31;5002391;28;20128;-64
2021/11/20 08:42:01;;;;;;;41.63;16.58;;;;;;;1.13;100.00;97698.53;4999631;28;20542;-63
2021/11/20 08:44:26;;;;;;;45.05;17.23;;;;;;;1.22;100.00;97697.94;4995520;28;20053;-64
2021/11/20 08:46:53;;;;;;;46.00;18.10;;;;;;;1.32;100.00;97698.66;4994439;28;20038;-63
2021/11/20 08:49:19;;;;;;;51.75;18.40;;;;;;;1.53;100.00;97698.47;4993637;28;20041;-64
2021/11/20 08:51:46;;;;;;;46.75;18.60;;;;;;;1.43;100.00;97698.59;5000207;28;20068;-64
2021/11/20 08:54:12;;;;;;;46.10;16.92;;;;;;;1.50;100.00;97696.38;4991990;28;20041;-64
2021/11/20 08:56:41;;;;;;;54.55;19.90;;;;;;;1.52;100.00;97697.69;5001048;28;20041;-64
2021/11/20 08:59:09;;;;;;;47.10;17.20;;;;;;;1.50;100.00;97693.66;4996010;28;20046;-63
2021/11/20 09:01:44;;;;;;;56.97;21.55;;;;;;;1.57;100.00;97680.63;5001192;28;20299;-63
2021/11/20 09:04:16;;;;;;;44.17;17.90;;;;;;;1.84;100.00;97685.50;4995982;28;20096;-62
2021/11/20 09:06:50;;;;;;;46.40;17.83;;;;;;;2.13;100.00;97687.38;4994885;28;20125;-62
2021/11/20 09:09:33;;;;;;;46.13;17.27;;;;;;;2.37;100.00;97678.44;4994724;28;20049;-65
2021/11/20 09:12:05;;;;;;;36.30;16.63;;;;;;;2.38;100.00;97680.88;4996602;28;20558;-62
2021/11/20 09:14:33;;;;;;;37.30;14.40;;;;;;;2.53;100.00;97676.38;4995422;28;20046;-62
2021/11/20 09:16:59;;;;;;;37.17;14.90;;;;;;;2.56;100.00;97676.59;5001435;28;20038;-62
2021/11/20 09:19:36;;;;;;;33.88;14.55;;;;;;;2.68;100.00;97679.69;4995452;28;20053;-63
2021/11/20 09:22:04;;;;;;;31.25;13.85;;;;;;;2.93;100.00;97672.28;4999143;28;20030;-64
2021/11/20 09:24:34;;;;;;;31.92;13.25;;;;;;;2.94;100.00;97676.63;4994341;28;20050;-62
2021/11/20 09:26:59;;;;;;;28.77;12.53;;;;;;;2.97;100.00;97676.03;4999701;28;20518;-62
2021/11/20 09:29:28;;;;;;;23.35;12.10;;;;;;;3.02;100.00;97669.72;4993734;28;20060;-61
2021/11/20 09:31:54;;;;;;;25.15;12.75;;;;;;;2.77;100.00;97671.69;4994853;28;20046;-60
2021/11/20 09:34:21;;;;;;;26.23;11.27;;;;;;;2.06;100.00;97668.78;5000755;28;20168;-59
2021/11/20 09:36:50;;;;;;;27.90;12.55;;;;;;;1.91;100.00;97666.28;5000639;28;20135;-63
2021/11/20 09:39:19;;;;;;;26.67;13.03;;;;;;;1.96;100.00;97665.41;4995581;28;20407;-62
2021/11/20 09:41:56;;;;;;;29.00;12.27;;;;;;;2.19;100.00;97653.78;5000314;28;20045;-63
2021/11/20 09:44:22;;;;;;;29.75;14.65;;;;;;;2.71;100.00;97655.84;4995990;28;20057;-61
2021/11/20 09:46:52;;;;;;;34.70;14.75;;;;;;;2.76;100.00;97651.16;5001870;28;20053;-63
2021/11/20 09:49:33;;;;;;;31.95;14.35;;;;;;;2.79;100.00;97658.69;4995918;28;20109;-63
2021/11/20 09:51:59;;;;;;;37.83;16.38;;;;;;;3.05;100.00;97655.63;4992018;28;20100;-62
2021/11/20 09:54:35;;;;;;;45.10;21.20;;;;;;;3.10;100.00;97658.25;4982999;28;20058;-63
2021/11/20 09:57:10;;;;;;;49.20;20.92;;;;;;;3.18;100.00;97656.78;4996767;28;20413;-61
2021/11/20 09:59:52;;;;;;;38.80;17.33;;;;;;;3.05;100.00;97652.91;4997941;28;20042;-62
2021/11/20 10:02:32;;;;;;;41.88;18.33;;;;;;;3.23;100.00;97648.56;4994765;28;20046;-62
2021/11/20 10:05:11;;;;;;;30.75;14.65;;;;;;;3.21;100.00;97643.44;4997762;28;20133;-61
2021/11/20 10:07:43;;;;;;;23.93;11.70;;;;;;;3.34;100.00;97650.00;4998986;28;20511;-63
2021/11/20 10:10:14;;;;;;;25.38;10.80;;;;;;;3.19;100.00;97642.94;4995505;28;20046;-61
2021/11/20 10:12:46;;;;;;;22.20;11.77;;;;;;;2.63;100.00;97639.16;5000852;28;20048;-62
2021/11/20 10:15:18;;;;;;;25.50;11.35;;;;;;;2.89;100.00;97633.38;4992849;28;20491;-61
2021/11/20 10:18:12;;;;;;;22.95;11.50;;;;;;;3.21;100.00;97627.19;5005485;28;20493;-62
2021/11/20 10:20:43;;;;;;;30.42;13.60;;;;;;;3.14;100.00;97626.78;4999247;28;20046;-60
2021/11/20 10:23:09;;;;;;;34.42;15.27;;;;;;;3.31;100.00;97620.00;4995622;28;20124;-62
2021/11/20 10:26:15;;;;;;;25.63;12.48;;;;;;;3.37;100.00;97611.50;4999561;28;20073;-61
2021/11/20 10:29:08;;;;;;;29.83;14.40;;;;;;;3.25;100.00;97613.88;4997927;28;20034;-62
2021/11/20 10:32:01;;;;;;;25.90;12.50;;;;;;;3.31;100.00;97620.00;4998860;28;20074;-62
2021/11/20 10:34:37;;;;;;;26.13;11.18;;;;;;;3.08;100.00;97613.59;4969533;28;20073;-62
2021/11/20 10:37:18;;;;;;;23.85;11.55;;;;;;;3.02;100.00;97604.78;4998366;28;20096;-61
2021/11/20 10:39:49;;;;;;;25.38;10.88;;;;;;;2.92;100.00;97603.03;4989568;28;20068;-60
2021/11/20 10:42:41;;;;;;;22.85;10.40;;;;;;;3.06;100.00;97600.38;4987433;28;20047;-62
2021/11/20 10:45:14;;;;;;;21.90;10.27;;;;;;;3.38;100.00;97588.72;4983690;28;20069;-61
2021/11/20 10:47:52;;;;;;;24.20;10.98;;;;;;;3.64;100.00;97586.38;4991757;28;20042;-61
2021/11/20 10:50:35;;;;;;;24.13;12.07;;;;;;;3.77;100.00;97584.78;4987701;28;20137;-61
2021/11/20 10:53:19;;;;;;;27.35;12.07;;;;;;;3.79;100.00;97579.84;4993507;28;20402;-62
2021/11/20 10:56:03;;;;;;;25.67;11.05;;;;;;;3.43;100.00;97582.44;4999111;28;20053;-61
2021/11/20 10:58:59;;;;;;;25.45;12.48;;;;;;;3.61;100.00;97578.84;4994802;28;20049;-59
2021/11/20 11:01:42;;;;;;;28.58;15.80;;;;;;;3.72;100.00;97576.75;4984320;28;20771;-61
2021/11/20 11:04:56;;;;;;;25.17;11.50;;;;;;;3.73;100.00;97572.94;4983767;28;20048;-62
2021/11/20 11:07:35;;;;;;;22.67;10.77;;;;;;;3.76;100.00;97564.22;4950944;28;20085;-62
2021/11/20 11:10:09;;;;;;;31.30;10.88;;;;;;;3.83;100.00;97556.50;4996945;28;20129;-62
2021/11/20 11:12:42;;;;;;;23.95;11.07;;;;;;;3.83;100.00;97551.06;4998180;28;20066;-63
2021/11/20 11:15:10;;;;;;;23.08;11.38;;;;;;;3.77;100.00;97546.84;4995001;28;20119;-61
2021/11/20 11:18:14;;;;;;;21.38;10.00;;;;;;;3.77;100.00;97546.84;4997581;28;20446;-62
2021/11/20 11:20:48;;;;;;;21.98;10.18;;;;;;;3.79;100.00;97541.13;4987769;28;20041;-63
2021/11/20 11:23:13;;;;;;;24.58;11.90;;;;;;;3.55;100.00;97544.84;4997982;28;20388;-63
2021/11/20 11:25:55;;;;;;;23.88;11.27;;;;;;;3.70;100.00;97532.88;4998722;28;20038;-63
2021/11/20 11:28:30;;;;;;;25.98;11.38;;;;;;;3.76;100.00;97545.25;4991286;28;20376;-62
2021/11/20 11:31:16;;;;;;;21.77;10.00;;;;;;;3.73;100.00;97524.16;4998957;28;20049;-61